createdAt,value
2023-02-08T00:01:33.626Z,-2.84
2023-02-08T00:04:02.860Z,-2.89
2023-02-08T00:06:31.322Z,-2.80
2023-02-08T00:09:01.698Z,-2.89
2023-02-08T00:11:30.192Z,-2.81
2023-02-08T00:14:00.228Z,-2.79
2023-02-08T00:16:28.857Z,-2.87
2023-02-08T00:18:57.391Z,-2.88
2023-02-08T00:21:26.246Z,-2.83
2023-02-08T00:23:54.645Z,-2.85
2023-02-08T00:26:23.853Z,-2.93
2023-02-08T00:28:52.328Z,-2.89
2023-02-08T00:31:22.750Z,-2.97
2023-02-08T00:33:51.522Z,-3.06
2023-02-08T00:36:20.679Z,-3.01
2023-02-08T00:38:49.068Z,-2.96
2023-02-08T00:41:18.424Z,-2.92
2023-02-08T00:43:49.207Z,-2.97
2023-02-08T00:46:17.548Z,-2.92
2023-02-08T00:48:47.625Z,-2.87
2023-02-08T00:51:16.020Z,-2.96
2023-02-08T00:53:46.192Z,-2.88
2023-02-08T00:56:15.993Z,-2.87
2023-02-08T00:58:44.714Z,-2.81
2023-02-08T01:01:13.661Z,-2.75
2023-02-08T01:03:43.695Z,-2.83
2023-02-08T01:06:16.994Z,-2.88
2023-02-08T01:08:46.732Z,-2.85
2023-02-08T01:11:21.849Z,-2.84
2023-02-08T01:13:50.358Z,-2.96
2023-02-08T01:16:20.784Z,-2.94
2023-02-08T01:18:51.215Z,-2.90
2023-02-08T01:21:24.742Z,-2.95
2023-02-08T01:23:53.440Z,-2.97
2023-02-08T01:26:25.166Z,-2.91
2023-02-08T01:28:55.022Z,-2.94
2023-02-08T01:31:29.061Z,-2.91
2023-02-08T01:33:59.198Z,-2.83
2023-02-08T01:36:30.660Z,-2.93
2023-02-08T01:38:59.035Z,-2.90
2023-02-08T01:41:29.956Z,-2.93
2023-02-08T01:44:05.109Z,-2.89
2023-02-08T01:46:34.689Z,-2.92
2023-02-08T01:49:08.246Z,-2.97
2023-02-08T01:51:42.177Z,-2.93
2023-02-08T01:54:12.474Z,-2.96
2023-02-08T01:56:45.954Z,-2.96
2023-02-08T01:59:18.752Z,-2.96
2023-02-08T02:01:48.940Z,-2.95
2023-02-08T02:04:17.777Z,-2.93
2023-02-08T02:06:51.853Z,-2.95
2023-02-08T02:09:25.937Z,-3.01
2023-02-08T02:11:56.242Z,-2.99
2023-02-08T02:14:26.673Z,-2.99
2023-02-08T02:16:55.031Z,-2.94
2023-02-08T02:19:32.931Z,-2.97
2023-02-08T02:22:18.965Z,-2.90
2023-02-08T02:25:08.230Z,-2.88
2023-02-08T02:27:54.293Z,-2.96
2023-02-08T02:30:45.535Z,-3.01
2023-02-08T02:33:46.002Z,-2.97
2023-02-08T02:36:25.607Z,-2.90
2023-02-08T02:39:06.422Z,-2.96
2023-02-08T02:42:03.585Z,-3.06
2023-02-08T02:44:42.136Z,-3.02
2023-02-08T02:47:20.350Z,-2.95
2023-02-08T02:49:51.800Z,-3.02
2023-02-08T02:52:33.685Z,-3.05
2023-02-08T02:55:07.499Z,-3.15
2023-02-08T02:57:37.249Z,-3.10
2023-02-08T03:00:09.904Z,-3.07
2023-02-08T03:02:38.565Z,-3.08
2023-02-08T03:05:08.709Z,-3.12
2023-02-08T03:08:14.188Z,-3.13
2023-02-08T03:10:55.241Z,-3.14
2023-02-08T03:13:33.853Z,-3.15
2023-02-08T03:16:15.350Z,-3.18
2023-02-08T03:18:57.687Z,-3.15
2023-02-08T03:21:38.583Z,-3.18
2023-02-08T03:24:22.643Z,-3.21
2023-02-08T03:26:57.182Z,-3.18
2023-02-08T03:29:38.857Z,-3.16
2023-02-08T03:32:11.364Z,-3.25
2023-02-08T03:34:47.262Z,-3.24
2023-02-08T03:37:21.234Z,-3.25
2023-02-08T03:39:57.141Z,-3.23
2023-02-08T03:42:28.923Z,-3.24
2023-02-08T03:45:01.654Z,-3.24
2023-02-08T03:47:35.471Z,-3.24
2023-02-08T03:50:09.526Z,-3.23
2023-02-08T03:52:39.426Z,-3.18
2023-02-08T03:55:14.892Z,-3.10
2023-02-08T03:57:49.255Z,-3.17
2023-02-08T04:00:19.986Z,-3.18
2023-02-08T04:02:55.546Z,-3.21
2023-02-08T04:05:25.678Z,-3.19
2023-02-08T04:07:54.168Z,-3.18
2023-02-08T04:10:24.049Z,-3.19
2023-02-08T04:12:53.298Z,-3.13
2023-02-08T04:15:22.162Z,-3.14
2023-02-08T04:17:50.555Z,-3.15
2023-02-08T04:20:18.941Z,-3.14
2023-02-08T04:22:47.311Z,-2.96
2023-02-08T04:25:16.075Z,-2.99
2023-02-08T04:27:45.858Z,-3.00
2023-02-08T04:30:15.183Z,-2.98
2023-02-08T04:32:43.541Z,-3.01
2023-02-08T04:35:12.000Z,-2.96
2023-02-08T04:37:40.418Z,-3.01
2023-02-08T04:40:09.449Z,-2.97
2023-02-08T04:42:37.793Z,-2.83
2023-02-08T04:45:08.611Z,-2.98
2023-02-08T04:47:37.047Z,-3.01
2023-02-08T04:50:06.164Z,-3.04
2023-02-08T04:52:34.508Z,-2.95
2023-02-08T04:55:02.807Z,-3.06
2023-02-08T04:57:31.479Z,-3.06
2023-02-08T05:00:00.481Z,-3.09
2023-02-08T05:02:30.474Z,-3.21
2023-02-08T05:04:58.830Z,-3.16
2023-02-08T05:07:27.280Z,-3.19
2023-02-08T05:09:55.619Z,-3.20
2023-02-08T05:12:24.135Z,-3.17
2023-02-08T05:14:52.618Z,-3.20
2023-02-08T05:17:20.976Z,-3.21
2023-02-08T05:19:50.893Z,-3.21
2023-02-08T05:22:19.178Z,-3.13
2023-02-08T05:24:47.700Z,-3.23
2023-02-08T05:27:18.013Z,-3.21
2023-02-08T05:29:46.385Z,-3.17
2023-02-08T05:32:14.761Z,-3.09
2023-02-08T05:34:43.184Z,-3.15
2023-02-08T05:37:14.219Z,-3.15
2023-02-08T05:39:42.599Z,-3.10
2023-02-08T05:42:11.048Z,-3.16
2023-02-08T05:44:39.448Z,-3.14
2023-02-08T05:47:08.135Z,-3.08
2023-02-08T05:49:36.520Z,-3.14
2023-02-08T05:52:05.251Z,-3.08
2023-02-08T05:54:35.368Z,-3.09
2023-02-08T05:57:04.040Z,-3.05
2023-02-08T05:59:32.330Z,-3.12
2023-02-08T06:02:00.846Z,-3.08
2023-02-08T06:04:29.258Z,-3.04
2023-02-08T06:06:57.612Z,-3.08
2023-02-08T06:09:25.960Z,-3.06
2023-02-08T06:11:55.655Z,-3.06
2023-02-08T06:14:24.500Z,-3.04
2023-02-08T06:16:52.871Z,-3.04
2023-02-08T06:19:21.343Z,-3.08
2023-02-08T06:21:49.959Z,-3.09
2023-02-08T06:24:18.284Z,-3.05
2023-02-08T06:26:46.613Z,-3.05
2023-02-08T06:29:16.600Z,-3.09
2023-02-08T06:31:44.928Z,-3.01
2023-02-08T06:34:13.940Z,-3.03
2023-02-08T06:36:42.293Z,-2.94
2023-02-08T06:39:10.641Z,-2.99
2023-02-08T06:41:39.126Z,-3.00
2023-02-08T06:44:07.528Z,-2.94
2023-02-08T06:46:37.368Z,-2.93
2023-02-08T06:49:05.938Z,-2.95
2023-02-08T06:51:34.249Z,-2.93
2023-02-08T06:54:02.552Z,-2.93
2023-02-08T06:56:31.027Z,-2.93
2023-02-08T06:58:59.544Z,-2.92
2023-02-08T07:01:27.961Z,-2.91
2023-02-08T07:03:57.823Z,-2.95
2023-02-08T07:06:26.246Z,-2.96
2023-02-08T07:08:54.940Z,-2.89
2023-02-08T07:11:23.613Z,-2.83
2023-02-08T07:13:52.923Z,-2.90
2023-02-08T07:16:21.680Z,-2.83
2023-02-08T07:18:50.082Z,-2.82
2023-02-08T07:21:22.171Z,-2.86
2023-02-08T07:23:50.510Z,-2.79
2023-02-08T07:26:19.668Z,-2.76
2023-02-08T07:28:47.962Z,-2.70
2023-02-08T07:31:18.225Z,-2.78
2023-02-08T07:33:46.599Z,-2.73
2023-02-08T07:36:14.862Z,-2.78
2023-02-08T07:38:45.041Z,-2.68
2023-02-08T07:41:15.387Z,-2.66
2023-02-08T07:43:44.479Z,-2.73
2023-02-08T07:46:15.894Z,-2.68
2023-02-08T07:48:45.348Z,-2.73
2023-02-08T07:51:14.932Z,-2.74
2023-02-08T07:53:44.717Z,-2.65
2023-02-08T07:56:13.277Z,-2.69
2023-02-08T07:58:41.569Z,-2.69
2023-02-08T08:01:21.443Z,-2.61
2023-02-08T08:03:51.537Z,-2.63
2023-02-08T08:06:20.567Z,-2.60
2023-02-08T08:08:50.908Z,-2.54
2023-02-08T08:11:20.929Z,-2.52
2023-02-08T08:13:49.303Z,-2.54
2023-02-08T08:16:18.388Z,-2.49
2023-02-08T08:18:47.391Z,-2.51
2023-02-08T08:21:16.883Z,-2.50
2023-02-08T08:23:45.464Z,-2.48
2023-02-08T08:26:17.488Z,-2.37
2023-02-08T08:28:47.384Z,-2.37
2023-02-08T08:31:17.961Z,-2.44
2023-02-08T08:33:46.974Z,-2.32
2023-02-08T08:36:15.598Z,-2.35
2023-02-08T08:38:44.202Z,-2.39
2023-02-08T08:41:17.461Z,-2.29
2023-02-08T08:43:46.076Z,-2.29
2023-02-08T08:46:16.685Z,-2.27
2023-02-08T08:48:45.541Z,-2.34
2023-02-08T08:51:14.204Z,-2.27
2023-02-08T08:53:42.511Z,-2.19
2023-02-08T08:56:11.013Z,-2.17
2023-02-08T08:58:40.747Z,-2.26
2023-02-08T09:01:09.117Z,-2.27
2023-02-08T09:03:37.633Z,-2.19
2023-02-08T09:06:06.343Z,-2.23
2023-02-08T09:08:34.657Z,-2.22
2023-02-08T09:11:07.359Z,-2.11
2023-02-08T09:13:36.144Z,-2.19
2023-02-08T09:16:12.388Z,-2.11
2023-02-08T09:18:40.898Z,-2.11
2023-02-08T09:21:10.296Z,-1.97
2023-02-08T09:23:39.069Z,-2.02
2023-02-08T09:26:09.197Z,-2.00
2023-02-08T09:28:37.544Z,-1.97
2023-02-08T09:31:11.253Z,-2.02
2023-02-08T09:33:40.013Z,-1.92
2023-02-08T09:36:09.066Z,-1.98
2023-02-08T09:38:37.681Z,-1.90
2023-02-08T09:41:21.337Z,-1.84
2023-02-08T09:44:02.035Z,-1.77
2023-02-08T09:46:35.697Z,-1.66
2023-02-08T09:49:11.972Z,-1.62
2023-02-08T09:51:46.182Z,-1.61
2023-02-08T09:54:19.695Z,-1.52
2023-02-08T09:57:02.991Z,-1.57
2023-02-08T09:59:35.087Z,-1.57
2023-02-08T10:02:18.732Z,-1.51
2023-02-08T10:05:00.993Z,-1.37
2023-02-08T10:07:29.794Z,-1.17
2023-02-08T10:10:01.398Z,-1.20
2023-02-08T10:12:43.404Z,-1.05
2023-02-08T10:15:26.922Z,-0.95
2023-02-08T10:18:24.541Z,-0.92
2023-02-08T10:21:09.014Z,-1.10
2023-02-08T10:23:53.769Z,-0.90
2023-02-08T10:26:33.225Z,-0.94
2023-02-08T10:29:35.097Z,-0.81
2023-02-08T10:32:26.705Z,-0.83
2023-02-08T10:35:01.377Z,-0.54
2023-02-08T10:37:35.012Z,-0.72
2023-02-08T10:40:21.094Z,-0.69
2023-02-08T10:43:00.589Z,-0.40
2023-02-08T10:45:33.489Z,-0.46
2023-02-08T10:48:07.059Z,-0.20
2023-02-08T10:50:40.769Z,-0.29
2023-02-08T10:53:17.105Z,-0.22
2023-02-08T10:55:47.562Z,-0.03
2023-02-08T10:58:18.911Z,0.29
2023-02-08T11:00:51.954Z,0.33
2023-02-08T11:03:24.332Z,0.39
2023-02-08T11:05:54.961Z,0.39
2023-02-08T11:08:25.224Z,0.50
2023-02-08T11:11:04.364Z,0.60
2023-02-08T11:13:37.864Z,0.48
2023-02-08T11:16:08.698Z,0.56
2023-02-08T11:18:40.805Z,0.62
2023-02-08T11:21:23.611Z,0.38
2023-02-08T11:23:53.972Z,0.66
2023-02-08T11:26:26.245Z,0.69
2023-02-08T11:29:02.513Z,0.73
2023-02-08T11:31:32.357Z,0.86
2023-02-08T11:34:03.559Z,0.65
2023-02-08T11:36:36.485Z,0.85
2023-02-08T11:39:18.652Z,0.82
2023-02-08T11:41:50.472Z,0.92
2023-02-08T11:44:24.544Z,1.13
2023-02-08T11:46:53.889Z,0.92
2023-02-08T11:49:25.348Z,0.89
2023-02-08T11:51:55.620Z,0.98
2023-02-08T11:54:41.392Z,0.72
2023-02-08T11:57:17.107Z,0.93
2023-02-08T11:59:45.736Z,1.15
2023-02-08T12:02:35.803Z,1.01
2023-02-08T12:05:05.491Z,0.94
2023-02-08T12:07:48.112Z,1.24
2023-02-08T12:10:45.678Z,1.30
2023-02-08T12:13:28.798Z,0.87
2023-02-08T12:16:10.964Z,1.17
2023-02-08T12:18:59.281Z,1.49
2023-02-08T12:21:33.691Z,1.60
2023-02-08T12:24:08.184Z,1.41
2023-02-08T12:27:01.993Z,1.36
2023-02-08T12:29:47.680Z,1.49
2023-02-08T12:32:51.791Z,1.69
2023-02-08T12:36:03.272Z,1.63
2023-02-08T12:39:19.085Z,1.88
2023-02-08T12:42:05.127Z,1.82
2023-02-08T12:44:41.792Z,1.57
2023-02-08T12:47:35.245Z,1.57
2023-02-08T12:50:15.698Z,1.27
2023-02-08T12:55:57.565Z,1.59
2023-02-08T12:58:33.344Z,1.58
2023-02-08T13:01:10.984Z,1.84
2023-02-08T13:03:49.373Z,1.97
2023-02-08T13:06:23.129Z,2.17
2023-02-08T13:08:56.348Z,2.27
2023-02-08T13:11:32.694Z,2.22
2023-02-08T13:14:12.681Z,2.44
2023-02-08T13:16:48.244Z,2.05
2023-02-08T13:19:30.883Z,2.09
2023-02-08T13:22:01.153Z,2.02
2023-02-08T13:24:37.871Z,1.68
2023-02-08T13:27:08.245Z,1.97
2023-02-08T13:29:39.376Z,1.74
2023-02-08T13:32:15.462Z,1.64
2023-02-08T13:34:48.262Z,1.64
2023-02-08T13:37:26.008Z,1.70
2023-02-08T13:40:03.121Z,1.74
2023-02-08T13:42:39.746Z,1.84
2023-02-08T13:45:12.349Z,1.68
2023-02-08T13:47:48.683Z,1.71
2023-02-08T13:50:49.079Z,1.62
2023-02-08T13:53:19.327Z,1.51
2023-02-08T13:56:08.380Z,1.75
2023-02-08T13:59:01.170Z,1.46
2023-02-08T14:01:33.070Z,1.76
2023-02-08T14:04:34.972Z,1.88
2023-02-08T14:07:30.416Z,1.65
2023-02-08T14:10:11.337Z,1.89
2023-02-08T14:12:50.223Z,1.80
2023-02-08T14:15:27.383Z,1.98
2023-02-08T14:18:03.129Z,1.88
2023-02-08T14:20:36.404Z,1.86
2023-02-08T14:23:08.205Z,1.56
2023-02-08T14:25:44.187Z,1.54
2023-02-08T14:28:33.589Z,1.51
2023-02-08T14:31:07.189Z,1.63
2023-02-08T14:33:41.110Z,1.51
2023-02-08T14:36:25.777Z,1.23
2023-02-08T14:39:06.966Z,1.25
2023-02-08T14:41:54.587Z,1.33
2023-02-08T14:44:51.490Z,1.18
2023-02-08T14:48:06.393Z,1.17
2023-02-08T14:51:17.218Z,1.04
2023-02-08T14:53:49.985Z,0.69
2023-02-08T14:56:23.253Z,0.78
2023-02-08T14:58:56.357Z,0.61
2023-02-08T15:01:35.400Z,0.36
2023-02-08T15:04:04.955Z,0.48
2023-02-08T15:07:10.806Z,0.36
2023-02-08T15:09:41.930Z,0.28
2023-02-08T15:12:18.932Z,0.14
2023-02-08T15:14:47.970Z,0.15
2023-02-08T15:17:34.884Z,0.09
2023-02-08T15:20:06.374Z,-0.03
2023-02-08T15:22:38.382Z,-0.03
2023-02-08T15:25:23.440Z,-0.21
2023-02-08T15:27:56.249Z,-0.27
2023-02-08T15:30:28.720Z,-0.21
2023-02-08T15:32:58.941Z,-0.36
2023-02-08T15:35:28.758Z,-0.40
2023-02-08T15:37:59.183Z,-0.52
2023-02-08T15:40:29.530Z,-0.61
2023-02-08T15:43:05.111Z,-0.66
2023-02-08T15:45:33.675Z,-0.64
2023-02-08T15:48:03.693Z,-0.83
2023-02-08T15:50:33.454Z,-0.87
2023-02-08T15:53:05.641Z,-0.97
2023-02-08T15:55:41.562Z,-0.97
2023-02-08T15:58:19.263Z,-1.13
2023-02-08T16:00:48.222Z,-1.13
2023-02-08T16:03:23.742Z,-1.12
2023-02-08T16:05:55.466Z,-1.15
2023-02-08T16:08:28.280Z,-1.30
2023-02-08T16:11:01.953Z,-1.35
2023-02-08T16:13:33.188Z,-1.53
2023-02-08T16:16:18.414Z,-1.47
2023-02-08T16:18:50.296Z,-1.51
2023-02-08T16:21:28.637Z,-1.49
2023-02-08T16:24:01.230Z,-1.62
2023-02-08T16:26:35.640Z,-1.60
2023-02-08T16:29:07.496Z,-1.67
2023-02-08T16:31:37.356Z,-1.72
2023-02-08T16:34:08.932Z,-1.76
2023-02-08T16:36:41.573Z,-1.80
2023-02-08T16:39:31.321Z,-1.80
2023-02-08T16:42:14.544Z,-1.96
2023-02-08T16:45:01.352Z,-2.00
2023-02-08T16:47:37.943Z,-1.95
2023-02-08T16:50:07.332Z,-2.02
2023-02-08T16:52:36.622Z,-2.05
2023-02-08T16:55:08.353Z,-2.12
2023-02-08T16:57:45.180Z,-2.23
2023-02-08T17:00:21.644Z,-2.23
2023-02-08T17:02:50.429Z,-2.28
2023-02-08T17:05:21.038Z,-2.35
2023-02-08T17:07:53.490Z,-2.36
2023-02-08T17:10:29.032Z,-2.29
2023-02-08T17:13:13.476Z,-2.37
2023-02-08T17:15:48.147Z,-2.35
2023-02-08T17:18:16.783Z,-2.40
2023-02-08T17:20:45.630Z,-2.42
2023-02-08T17:23:15.820Z,-2.36
2023-02-08T17:25:46.286Z,-2.45
2023-02-08T17:28:19.283Z,-2.38
2023-02-08T17:30:49.508Z,-2.44
2023-02-08T17:33:21.175Z,-2.44
2023-02-08T17:35:51.261Z,-2.48
2023-02-08T17:38:20.498Z,-2.59
2023-02-08T17:40:50.604Z,-2.64
2023-02-08T17:43:19.124Z,-2.66
2023-02-08T17:45:48.053Z,-2.77
2023-02-08T17:48:17.146Z,-2.68
2023-02-08T17:50:51.096Z,-2.63
2023-02-08T17:53:20.879Z,-2.73
2023-02-08T17:55:51.372Z,-2.73
2023-02-08T17:58:20.183Z,-2.76
2023-02-08T18:00:53.951Z,-2.64
2023-02-08T18:03:22.851Z,-2.73
2023-02-08T18:05:57.324Z,-2.82
2023-02-08T18:08:28.840Z,-2.80
2023-02-08T18:11:04.817Z,-2.79
2023-02-08T18:13:39.718Z,-2.91
2023-02-08T18:16:10.127Z,-2.96
2023-02-08T18:18:39.693Z,-2.93
2023-02-08T18:21:13.863Z,-2.94
2023-02-08T18:23:43.389Z,-3.02
2023-02-08T18:26:16.078Z,-3.09
2023-02-08T18:28:45.291Z,-3.09
2023-02-08T18:31:16.193Z,-3.10
2023-02-08T18:33:45.604Z,-3.14
2023-02-08T18:36:15.799Z,-3.10
2023-02-08T18:38:45.792Z,-3.22
2023-02-08T18:41:18.471Z,-3.25
2023-02-08T18:43:47.173Z,-3.22
2023-02-08T18:46:18.087Z,-3.19
2023-02-08T18:48:47.289Z,-3.24
2023-02-08T18:51:22.733Z,-3.31
2023-02-08T18:53:53.796Z,-3.28
2023-02-08T18:56:26.699Z,-3.36
2023-02-08T18:58:56.893Z,-3.30
2023-02-08T19:01:26.303Z,-3.38
2023-02-08T19:03:55.317Z,-3.36
2023-02-08T19:06:25.616Z,-3.45
2023-02-08T19:08:55.836Z,-3.46
2023-02-08T19:11:28.116Z,-3.55
2023-02-08T19:13:59.317Z,-3.53
2023-02-08T19:16:28.872Z,-3.61
2023-02-08T19:18:57.708Z,-3.55
2023-02-08T19:21:26.438Z,-3.59
2023-02-08T19:23:58.224Z,-3.61
2023-02-08T19:26:30.017Z,-3.59
2023-02-08T19:29:03.171Z,-3.63
2023-02-08T19:31:33.303Z,-3.61
2023-02-08T19:34:03.319Z,-3.57
2023-02-08T19:36:33.803Z,-3.57
2023-02-08T19:39:03.492Z,-3.57
2023-02-08T19:41:37.681Z,-3.59
2023-02-08T19:44:08.370Z,-3.62
2023-02-08T19:46:39.291Z,-3.69
2023-02-08T19:49:08.816Z,-3.64
2023-02-08T19:51:38.472Z,-3.66
2023-02-08T19:54:10.318Z,-3.68
2023-02-08T19:56:40.628Z,-3.70
2023-02-08T19:59:19.690Z,-3.72
2023-02-08T20:01:51.425Z,-3.80
2023-02-08T20:04:20.151Z,-3.86
2023-02-08T20:06:52.883Z,-3.89
2023-02-08T20:09:22.131Z,-3.97
2023-02-08T20:12:00.084Z,-3.99
2023-02-08T20:14:34.781Z,-4.07
2023-02-08T20:17:04.340Z,-4.07
2023-02-08T20:19:33.392Z,-4.16
2023-02-08T20:22:02.156Z,-4.22
2023-02-08T20:24:30.969Z,-4.20
2023-02-08T20:27:05.820Z,-4.15
2023-02-08T20:29:34.614Z,-4.25
2023-02-08T20:32:03.439Z,-4.21
2023-02-08T20:34:35.080Z,-4.34
2023-02-08T20:37:07.641Z,-4.37
2023-02-08T20:39:39.476Z,-4.41
2023-02-08T20:42:18.130Z,-4.50
2023-02-08T20:44:47.249Z,-4.50
2023-02-08T20:47:19.467Z,-4.55
2023-02-08T20:49:50.172Z,-4.57
2023-02-08T20:52:20.294Z,-4.58
2023-02-08T20:54:52.224Z,-4.56
2023-02-08T20:57:22.354Z,-4.56
2023-02-08T20:59:52.546Z,-4.55
2023-02-08T21:02:24.288Z,-4.64
2023-02-08T21:04:53.049Z,-4.58
2023-02-08T21:07:21.679Z,-4.67
2023-02-08T21:09:50.391Z,-4.70
2023-02-08T21:12:19.091Z,-4.78
2023-02-08T21:14:49.668Z,-4.74
2023-02-08T21:17:18.774Z,-4.84
2023-02-08T21:19:47.811Z,-4.70
2023-02-08T21:22:17.221Z,-4.88
2023-02-08T21:24:45.768Z,-4.91
2023-02-08T21:27:14.384Z,-4.98
2023-02-08T21:29:43.036Z,-4.94
2023-02-08T21:32:12.984Z,-4.95
2023-02-08T21:34:41.626Z,-5.02
2023-02-08T21:42:15.123Z,-4.95
2023-02-08T21:44:44.134Z,-5.02
2023-02-08T21:47:14.195Z,-5.08
2023-02-08T21:50:00.096Z,-5.03
2023-02-08T21:52:46.312Z,-5.17
2023-02-08T22:01:14.897Z,-5.21
2023-02-08T22:04:29.756Z,-5.20
2023-02-08T22:07:19.236Z,-5.15
2023-02-08T22:09:48.157Z,-5.25
2023-02-08T22:12:18.888Z,-5.26
2023-02-08T22:14:47.988Z,-5.17
2023-02-08T22:17:17.386Z,-5.27
2023-02-08T22:19:47.894Z,-5.29
2023-02-08T22:22:16.363Z,-5.17
2023-02-08T22:24:44.856Z,-5.17
2023-02-08T22:27:18.450Z,-5.21
2023-02-08T22:29:52.776Z,-5.19
2023-02-08T22:32:21.589Z,-5.25
2023-02-08T22:34:51.493Z,-5.30
2023-02-08T22:37:20.001Z,-5.25
2023-02-08T22:39:48.520Z,-5.33
2023-02-08T22:42:17.074Z,-5.30
2023-02-08T22:44:46.229Z,-5.29
2023-02-08T22:47:15.203Z,-5.29
2023-02-08T22:49:43.777Z,-5.31
2023-02-08T22:52:14.452Z,-5.29
2023-02-08T22:54:43.016Z,-5.34
2023-02-08T22:57:12.068Z,-5.36
2023-02-08T22:59:41.387Z,-5.34
2023-02-08T23:02:09.969Z,-5.31
2023-02-08T23:04:38.750Z,-5.36
2023-02-08T23:07:07.189Z,-5.42
2023-02-08T23:09:37.002Z,-5.40
2023-02-08T23:12:05.560Z,-5.35
2023-02-08T23:14:34.216Z,-5.26
2023-02-08T23:17:02.984Z,-5.33
2023-02-08T23:19:31.719Z,-5.43
2023-02-08T23:22:00.645Z,-5.40
2023-02-08T23:24:29.120Z,-5.39
2023-02-08T23:26:59.041Z,-5.39
2023-02-08T23:29:27.708Z,-5.35
2023-02-08T23:31:56.152Z,-5.43
2023-02-08T23:34:24.813Z,-5.41
2023-02-08T23:36:53.224Z,-5.38
2023-02-08T23:39:22.136Z,-5.47
2023-02-08T23:41:50.545Z,-5.31
2023-02-08T23:44:20.802Z,-5.34
2023-02-08T23:46:49.208Z,-5.24
2023-02-08T23:49:17.659Z,-5.23
2023-02-08T23:51:46.023Z,-5.21
2023-02-08T23:54:14.470Z,-5.13
2023-02-08T23:56:42.922Z,-5.17
2023-02-08T23:59:12.050Z,-5.05
